Latest Weather Observations for Walpole North

IDW60801

Issued at 3:35 pm WST Friday 22 August 2014 (issued every 30 minutes, with the page automatically refreshed every 10 minutes)

About weather observations | Map of weather stations | Latest weather observations for WA | Other Formats
Station Details ID: 009998 Name: NORTH WALPOLE Lat: -34.95 Lon: 116.72 Height: 73.0 m
Data from the previous 72 hours. | See also: Recent months at Walpole North
Date/Time
WST
Temp
°C
App
Temp
°C
Dew
Point
Rel
Hum
%
Delta-T
°C
Wind Press
QNH
hPa
Press
MSL
hPa
Rain
since 9 am
mm
Dir
 
Spd
km/h
Gust
km/h
Spd
kts
Gust
kts
22/03:30pm 15.4 11.1 5.3 51 4.8 WNW 17 22 9 12 1021.1 1021.1 0.0
22/03:00pm 15.9 11.5 4.6 47 5.3 WSW 17 24 9 13 1021.0 1021.0 0.0
22/02:30pm 16.0 11.8 5.6 50 5.0 WNW 17 24 9 13 1020.7 1020.7 0.0
22/02:00pm 15.6 11.5 6.1 53 4.6 W 17 26 9 14 1020.4 1020.4 0.0
22/01:30pm 15.7 12.5 6.7 55 4.4 W 13 20 7 11 1020.2 1020.2 0.0
22/01:00pm 14.6 10.7 6.9 60 3.8 W 17 32 9 17 1020.4 1020.4 0.0
22/12:30pm 16.2 13.7 9.6 65 3.4 W 13 22 7 12 1020.3 1020.3 0.0
22/12:00pm 15.3 11.3 8.3 63 3.5 WSW 19 26 10 14 1020.5 1020.5 0.0
22/11:30am 15.0 11.5 7.3 60 3.8 WSW 15 30 8 16 1020.5 1020.5 0.0
22/11:00am 14.2 9.7 7.0 62 3.5 WSW 20 33 11 18 1020.4 1020.4 0.0
22/10:30am 14.8 10.3 7.1 60 3.8 WSW 20 30 11 16 1020.1 1020.1 0.0
22/10:00am 14.8 10.9 7.1 60 3.8 WSW 17 26 9 14 1020.0 1020.0 0.0
22/09:30am 14.5 10.6 7.1 61 3.6 WSW 17 28 9 15 1019.6 1019.7 0.0
22/09:00am 13.8 10.1 6.4 61 3.6 WSW 15 26 8 14 1019.1 1019.2 8.6
22/08:30am 13.6 9.5 6.2 61 3.5 WSW 17 26 9 14 1018.8 1018.9 8.6
22/08:00am 12.5 9.1 5.9 64 3.1 W 13 19 7 10 1018.2 1018.2 8.6
22/07:30am 12.0 8.2 5.9 66 2.9 W 15 26 8 14 1017.7 1017.7 8.6
22/07:00am 11.2 7.4 5.7 69 2.5 W 15 22 8 12 1017.2 1017.2 8.6
22/06:30am 10.8 6.1 6.2 73 2.2 WSW 20 33 11 18 1016.6 1016.6 8.6
22/06:00am 11.5 6.3 5.6 67 2.7 W 22 35 12 19 1016.1 1016.1 8.0
22/05:30am 10.7 6.5 5.5 70 2.4 W 17 28 9 15 1015.6 1015.6 8.0
22/05:00am 10.3 6.3 6.5 77 1.8 W 17 28 9 15 1015.1 1015.1 8.0
22/04:30am 10.1 5.1 6.6 79 1.6 W 22 35 12 19 1014.3 1014.3 8.0
22/04:00am 10.5 6.4 7.9 84 1.3 W 19 32 10 17 1013.9 1013.9 7.2
22/03:30am 10.0 5.8 8.4 90 0.8 WNW 20 28 11 15 1013.5 1013.5 7.2
22/03:00am 10.4 4.8 8.7 89 0.8 WNW 28 41 15 22 1013.4 1013.4 7.0
22/02:30am 10.6 6.6 9.2 91 0.7 WNW 20 26 11 14 1012.9 1012.9 6.6
22/02:00am 10.7 6.5 9.6 93 0.6 W 22 35 12 19 1012.6 1012.6 6.6
22/01:30am 10.5 6.8 9.6 94 0.5 NW 19 32 10 17 1011.8 1011.8 6.2
22/01:00am 10.5 6.6 9.4 93 0.6 WNW 20 28 11 15 1012.1 1012.1 6.2
22/12:30am 11.0 5.5 9.1 88 0.9 NW 28 37 15 20 1011.7 1011.7 3.8
22/12:03am 11.4 5.0 9.5 88 1.0 NW 33 56 18 30 1010.7 1010.7 3.6
22/12:00am 11.3 5.1 9.4 88 1.0 NW 32 44 17 24 1010.9 1010.9 3.6
 
Date/Time
WST
Temp
°C
App
Temp
°C
Dew
Point
Rel
Hum
%
Delta-T
°C
Wind Press
QNH
hPa
Press
MSL
hPa
Rain
since 9 am
mm
Dir
 
Spd
km/h
Gust
km/h
Spd
kts
Gust
kts
21/11:30pm 11.3 5.4 8.9 85 1.2 NW 30 39 16 21 1011.1 1011.1 3.4
21/11:00pm 11.8 6.9 8.6 81 1.6 NW 24 35 13 19 1010.5 1010.5 2.8
21/10:30pm 11.6 7.6 9.0 84 1.3 NNW 20 26 11 14 1010.6 1010.6 2.8
21/10:00pm 11.4 7.9 8.8 84 1.3 NW 17 22 9 12 1010.8 1010.8 2.8
21/09:30pm 11.9 7.8 7.8 76 2.0 W 19 30 10 16 1011.1 1011.1 2.6
21/09:00pm 12.1 8.5 8.2 77 1.9 NW 17 24 9 13 1010.6 1010.6 2.6
21/08:30pm 11.8 9.4 8.6 81 1.6 NW 11 15 6 8 1010.3 1010.3 2.6
21/08:00pm 12.8 9.2 8.5 75 2.2 NW 17 26 9 14 1010.4 1010.4 2.6
21/07:30pm 13.3 9.6 9.4 77 2.0 NNW 19 24 10 13 1010.2 1010.2 2.6
21/07:00pm 13.3 9.4 9.4 77 2.0 NW 20 30 11 16 1009.9 1009.9 2.6
21/06:30pm 13.7 10.1 9.7 77 2.1 WNW 19 26 10 14 1009.5 1009.5 2.6
21/06:00pm 13.8 10.6 10.0 78 2.0 NW 17 26 9 14 1009.1 1009.1 2.6
21/05:30pm 14.0 10.8 10.0 77 2.1 NW 17 22 9 12 1008.8 1008.8 2.6
21/05:00pm 15.1 11.3 9.9 71 2.7 NW 20 32 11 17 1008.4 1008.4 2.6
21/04:30pm 15.5 11.8 10.3 71 2.7 NW 20 30 11 16 1008.2 1008.2 2.6
21/04:00pm 15.8 13.5 13.1 84 1.5 WNW 17 24 9 13 1008.0 1008.0 2.6
21/03:30pm 15.0 13.2 13.2 89 1.0 WNW 15 22 8 12 1008.2 1008.2 2.6
21/03:00pm 14.4 12.0 12.6 89 1.0 WNW 17 26 9 14 1007.8 1007.8 2.4
21/02:30pm 14.4 11.6 13.1 92 0.7 NW 20 32 11 17 1007.6 1007.6 2.4
21/02:00pm 13.8 10.9 13.0 95 0.4 WNW 20 33 11 18 1007.7 1007.7 2.4
21/01:30pm 13.6 11.2 12.8 95 0.4 WNW 17 28 9 15 1007.5 1007.5 1.8
21/01:00pm 13.9 11.2 13.0 94 0.5 W 19 30 10 16 1007.4 1007.4 1.8
21/12:36pm 13.4 9.0 12.8 96 0.3 WNW 28 48 15 26 1007.5 1007.5 1.6
21/12:30pm 13.4 9.7 12.8 96 0.3 W 24 43 13 23 1007.5 1007.5 1.6
21/12:00pm 13.9 11.0 13.0 94 0.5 W 20 35 11 19 1007.4 1007.4 1.4
21/11:30am 14.5 12.0 13.4 93 0.6 WNW 19 33 10 18 1007.3 1007.3 0.8
21/11:00am 14.8 12.7 13.7 93 0.6 WNW 17 26 9 14 1007.2 1007.2 0.8
21/10:30am 14.4 11.0 12.6 89 1.0 W 22 37 12 20 1007.2 1007.2 0.8
21/10:00am 16.5 11.8 11.9 74 2.5 NW 28 41 15 22 1006.2 1006.1 0.0
21/09:30am 16.4 11.7 12.0 75 2.4 NW 28 41 15 22 1006.1 1006.0 0.0
21/09:00am 15.9 10.9 12.3 79 2.0 NW 30 43 16 23 1006.1 1006.0 2.0
21/08:30am 15.2 10.7 12.7 85 1.4 NW 28 39 15 21 1005.9 1005.8 2.0
21/08:00am 15.1 10.9 13.6 91 0.8 NW 28 43 15 23 1005.3 1005.3 2.0
21/07:30am 15.0 11.0 14.2 95 0.5 NW 28 39 15 21 1005.0 1005.0 2.0
21/07:01am 14.9 10.6 14.3 96 0.3 WNW 30 48 16 26 1004.2 1004.2 2.0
21/07:00am 14.9 10.2 14.3 96 0.3 WNW 32 48 17 26 1004.2 1004.2 2.0
21/06:53am 15.1 10.8 14.5 96 0.3 NW 30 48 16 26 1004.0 1004.0 2.0
21/06:30am 15.1 12.6 14.0 93 0.6 NW 20 32 11 17 1003.8 1003.8 1.6
21/06:00am 15.3 12.3 13.8 91 0.8 N 22 39 12 21 1002.5 1002.5 0.4
21/05:30am 15.0 12.1 13.0 88 1.1 N 20 35 11 19 1002.3 1002.3 0.0
21/05:00am 15.5 12.5 12.6 83 1.6 N 20 41 11 22 1002.8 1002.8 0.0
21/04:30am 16.0 12.3 12.7 81 1.8 N 24 41 13 22 1002.9 1002.9 0.0
21/04:00am 15.5 12.0 12.3 81 1.8 N 22 43 12 23 1003.6 1003.6 0.0
21/03:30am 15.5 11.7 12.3 81 1.8 N 24 41 13 22 1003.5 1003.5 0.0
21/03:00am 15.6 11.3 12.0 79 2.0 N 26 39 14 21 1004.1 1004.1 0.0
21/02:30am 15.1 11.4 11.5 79 1.9 N 22 44 12 24 1004.5 1004.5 0.0
21/02:00am 15.1 11.8 11.7 80 1.8 N 20 35 11 19 1005.4 1005.4 0.0
21/01:30am 14.8 12.0 11.2 79 1.9 N 17 30 9 16 1006.1 1006.0 0.0
21/01:00am 14.7 11.4 10.9 78 2.0 N 19 32 10 17 1006.7 1006.6 0.0
21/12:30am 14.9 12.0 11.1 78 2.0 N 17 35 9 19 1007.4 1007.4 0.0
21/12:00am 14.9 12.1 11.3 79 1.9 N 17 30 9 16 1007.6 1007.6 0.0
 
Date/Time
WST
Temp
°C
App
Temp
°C
Dew
Point
Rel
Hum
%
Delta-T
°C
Wind Press
QNH
hPa
Press
MSL
hPa
Rain
since 9 am
mm
Dir
 
Spd
km/h
Gust
km/h
Spd
kts
Gust
kts
20/11:30pm 14.8 12.0 11.4 80 1.8 N 17 26 9 14 1008.2 1008.2 0.0
20/11:00pm 14.6 12.6 11.4 81 1.7 N 13 22 7 12 1008.8 1008.8 0.0
20/10:30pm 14.6 12.4 10.8 78 2.0 N 13 24 7 13 1009.5 1009.5 0.0
20/10:00pm 14.8 11.8 10.8 77 2.1 N 17 32 9 17 1009.6 1009.6 0.0
20/09:30pm 14.8 11.8 10.8 77 2.1 N 17 28 9 15 1010.2 1010.2 0.0
20/09:00pm 14.7 12.4 10.5 76 2.2 N 13 20 7 11 1010.7 1010.7 0.0
20/08:30pm 15.3 12.7 10.7 74 2.4 NNW 15 22 8 12 1010.7 1010.7 0.0
20/08:00pm 15.2 13.7 10.6 74 2.4 N 9 17 5 9 1010.7 1010.7 0.0
20/07:30pm 15.3 13.4 10.5 73 2.5 N 11 19 6 10 1010.8 1010.8 0.0
20/07:00pm 15.9 14.5 10.9 72 2.7 N 9 15 5 8 1010.7 1010.7 0.0
20/06:30pm 16.4 14.6 10.9 70 3.0 N 11 17 6 9 1010.6 1010.6 0.0
20/06:00pm 16.5 14.8 11.2 71 2.9 N 11 17 6 9 1010.6 1010.6 0.0
20/05:30pm 16.4 15.6 11.6 73 2.6 N 7 11 4 6 1010.6 1010.6 0.0
20/05:00pm 17.6 16.5 12.1 70 3.0 NNW 9 13 5 7 1010.4 1010.4 0.0
20/04:30pm 17.7 16.1 11.5 67 3.4 N 11 19 6 10 1010.3 1010.3 0.0
20/04:00pm 17.6 16.4 11.6 68 3.3 NNW 9 13 5 7 1010.3 1010.3 0.0
20/03:30pm 18.1 15.3 11.4 65 3.7 NW 17 26 9 14 1010.7 1010.7 0.0
20/03:00pm 18.2 15.1 10.3 60 4.2 NNW 17 28 9 15 1010.7 1010.7 0.0
20/02:30pm 18.7 15.1 10.5 59 4.4 NNW 20 32 11 17 1010.6 1010.6 0.0
20/02:00pm 18.6 14.9 10.2 58 4.5 NNW 20 33 11 18 1010.6 1010.6 0.0
20/01:30pm 18.7 16.0 10.3 58 4.5 N 15 19 8 10 1010.9 1010.9 0.0
20/01:00pm 19.2 15.8 11.3 60 4.3 NW 20 33 11 18 1011.3 1011.3 0.0
20/12:30pm 18.8 16.3 10.9 60 4.3 NW 15 24 8 13 1011.8 1011.8 0.0
20/12:00pm 17.7 14.1 10.6 63 3.8 NW 20 28 11 15 1012.4 1012.4 0.0
20/11:30am 18.0 15.3 11.6 66 3.5 WNW 17 24 9 13 1012.8 1012.8 0.0
20/11:00am 18.1 14.9 11.4 65 3.7 WNW 19 28 10 15 1013.1 1013.1 0.0
20/10:30am 17.3 14.7 12.0 71 2.9 NW 17 30 9 16 1013.4 1013.4 0.0
20/10:00am 16.2 14.0 12.0 76 2.3 NNW 15 24 8 13 1013.6 1013.6 0.0
20/09:30am 15.4 13.0 12.5 83 1.6 NNW 17 30 9 16 1013.8 1013.8 0.0
20/09:00am 14.5 13.2 12.4 87 1.1 NW 11 19 6 10 1013.9 1013.9 0.0
20/08:30am 13.7 14.0 12.3 91 0.8 WNW 2 11 1 6 1014.0 - 0.0
20/08:00am 13.5 14.2 12.2 92 0.7 CALM 0 0 0 0 1013.8 1013.8 0.0
20/07:30am 12.4 12.5 11.5 94 0.5 NNW 2 11 1 6 1013.7 - 0.0
20/07:00am 11.8 10.8 11.0 95 0.4 NNW 7 11 4 6 1013.6 1013.6 0.0
20/06:30am 10.8 10.8 9.7 93 0.6 CALM 0 0 0 0 1013.2 - 0.0
20/06:00am 12.6 11.4 11.5 93 0.6 N 9 17 5 9 1012.9 1012.9 0.0
20/05:30am 13.1 10.7 12.5 96 0.3 NNW 17 22 9 12 1013.2 - 0.0
20/05:00am 12.8 11.8 12.2 96 0.3 WNW 9 13 5 7 1013.3 1013.3 0.0
20/04:30am 12.7 11.7 12.4 98 0.2 NNW 9 13 5 7 1013.1 - 0.0
20/04:00am 11.1 11.2 10.3 95 0.4 CALM 0 0 0 0 1013.3 1013.3 0.0
20/03:30am 11.4 11.6 10.5 94 0.5 CALM 0 0 0 0 1013.3 - 0.0
20/03:00am 11.7 12.0 10.8 94 0.5 CALM 0 0 0 0 1013.8 1013.8 0.0
20/02:30am 11.0 11.0 9.8 92 0.6 CALM 0 0 0 0 1014.1 - 0.0
20/02:00am 11.2 11.1 9.6 90 0.8 CALM 0 0 0 0 1014.3 1014.3 0.0
20/01:30am 12.2 11.1 10.6 90 0.8 NNE 7 13 4 7 1014.3 - 0.0
20/01:00am 12.7 11.0 11.1 90 0.8 NNE 11 15 6 8 1014.3 1014.3 0.0
20/12:30am 13.0 11.5 11.9 93 0.6 NNE 11 19 6 10 1014.7 - 0.0
20/12:00am 12.7 10.8 11.9 95 0.4 NNE 13 20 7 11 1015.0 1015.0 0.0
 
Date/Time
WST
Temp
°C
App
Temp
°C
Dew
Point
Rel
Hum
%
Delta-T
°C
Wind Press
QNH
hPa
Press
MSL
hPa
Rain
since 9 am
mm
Dir
 
Spd
km/h
Gust
km/h
Spd
kts
Gust
kts
19/11:30pm 11.2 10.3 10.6 96 0.3 N 6 13 3 7 1015.1 - 0.0
19/11:00pm 11.6 12.0 11.1 97 0.3 CALM 0 0 0 0 1015.1 1015.1 0.0
19/10:30pm 11.7 12.1 11.1 96 0.3 CALM 0 0 0 0 1015.4 - 0.0
19/10:00pm 12.3 11.5 11.7 96 0.3 NE 7 13 4 7 1015.4 1015.4 0.0
19/09:30pm 12.0 11.1 11.2 95 0.4 NE 7 13 4 7 1015.5 - 0.0
19/09:00pm 12.3 12.7 11.2 93 0.6 CALM 0 0 0 0 1015.5 1015.5 0.0
19/08:30pm 12.5 12.9 11.2 92 0.7 CALM 0 0 0 0 1015.4 - 0.0
19/08:00pm 13.0 13.5 11.6 91 0.7 CALM 0 0 0 0 1015.4 1015.4 0.0
19/07:30pm 13.0 13.4 11.2 89 1.0 CALM 0 0 0 0 1015.5 - 0.0
19/07:00pm 13.2 13.6 11.1 87 1.1 CALM 0 0 0 0 1015.4 1015.4 0.0
19/06:30pm 13.7 13.7 11.2 85 1.3 SE 2 6 1 3 1015.0 - 0.0
19/06:00pm 14.7 14.4 11.5 81 1.7 SE 4 7 2 4 1014.9 1014.9 0.0
19/05:30pm 15.1 14.3 11.7 80 1.8 SE 7 9 4 5 1014.6 - 0.0
19/05:00pm 16.2 16.1 12.2 77 2.2 SE 4 13 2 7 1014.6 1014.6 0.0
19/04:30pm 17.2 16.8 13.1 77 2.3 SSE 7 17 4 9 1014.3 - 0.0
19/04:00pm 16.9 15.6 12.6 76 2.4 S 11 20 6 11 1014.3 1014.3 0.0

Other Formats:

Comma delimited format used in spreadsheet applications
http://www.bom.gov.au/fwo/IDW60801/IDW60801.95647.axf

JavaScript Object Notation format (JSON) in row-major order
http://www.bom.gov.au/fwo/IDW60801/IDW60801.95647.json